CheckWX is a tool to help pilots better visualize weather data.  It is not intended as a substitute for an official pre-flight weather briefing.

05:09:34 UTC

KHZL METAR
Hazleton Regional Airport
Hazleton, Pennsylvania, USA
Current

34 mins ago

KHZL 240436Z AUTO 13007G15KT 3SM UP OVC004 00/M01 A3008 RMK AO2
Observed
Feb-24 @ 04:36 UTC
Wind
  • 130° at 7 KTS
  • Gusting to 15 KTS
Visibility
3 SM
Flight Rules
LIFR
Conditions
Unknown precipitation
Cloud Levels
  • Overcast at 400' AGL
Temperature
C / 32°F
Dewpoint
-1°C / 30°F
Humidity
93%
Altimeter
30.08" Hg
Pressure
1018.62 hPa
Previous

54 mins ago

KHZL 240416Z AUTO 12007G16KT 090V150 3SM UP OVC004 00/M01 A3010 RMK AO2
Observed
Feb-24 @ 04:16 UTC
Wind
  • 120° at 7 KTS
  • Gusting to 16 KTS
Visibility
3 SM
Flight Rules
LIFR
Conditions
Unknown precipitation
Cloud Levels
  • Overcast at 400' AGL
Temperature
C / 32°F
Dewpoint
-1°C / 30°F
Humidity
93%
Altimeter
30.1" Hg
Pressure
1019.32 hPa
Previous

1 hour ago

KHZL 240356Z AUTO 12005G14KT 3SM UP OVC004 00/M01 A3011 RMK AO2
Observed
Feb-24 @ 03:56 UTC
Wind
  • 120° at 5 KTS
  • Gusting to 14 KTS
Visibility
3 SM
Flight Rules
LIFR
Conditions
Unknown precipitation
Cloud Levels
  • Overcast at 400' AGL
Temperature
C / 32°F
Dewpoint
-1°C / 30°F
Humidity
93%
Altimeter
30.11" Hg
Pressure
1019.62 hPa